Time;durP1;ratioP1;P1;durP2;ratioP2;P2;SDS_P1;SDS_P2;PMS_P1;PMS_P2;Temp;Humidity;BMP_temperature;BMP_pressure;BME280_temperature;BME280_humidity;BME280_pressure;Samples;Min_cycle;Max_cycle;Signal;HPM_P1;HPM_P2
2023/06/22 00:00:12;;;;;;;;;;;;;;;25.12;69.37;100125.94;4484476;31;32425;-85
2023/06/22 00:02:40;;;;;;;;;;;;;;;24.69;71.49;100139.56;4472813;31;32680;-84
2023/06/22 00:05:07;;;;;;;;;;;;;;;24.12;74.72;100138.09;4485496;31;32792;-85
2023/06/22 00:07:34;;;;;;;;;;;;;;;23.87;75.33;100142.63;4487099;31;33588;-84
2023/06/22 00:10:02;;;;;;;;;;;;;;;23.84;75.80;100142.66;4488076;31;34388;-84
2023/06/22 00:12:30;;;;;;;;;;;;;;;23.77;76.13;100155.87;4488395;31;34919;-85
2023/06/22 00:14:57;;;;;;;;;;;;;;;23.68;76.08;100152.37;4488003;31;33625;-85
2023/06/22 00:17:24;;;;;;;;;;;;;;;23.05;79.52;100148.97;4485685;31;33428;-85
2023/06/22 00:19:53;;;;;;;;;;;;;;;23.02;80.38;100149.81;4483455;31;34520;-86
2023/06/22 00:22:28;;;;;;;;;;;;;;;22.74;82.26;100138.38;4485508;31;34204;-85
2023/06/22 00:24:56;;;;;;;;;;;;;;;22.34;86.26;100133.91;4488295;31;34072;-86
2023/06/22 00:27:23;;;;;;;;;;;;;;;23.70;79.17;100140.03;4489120;31;31461;-85
2023/06/22 00:29:50;;;;;;;;;;;;;;;23.77;79.24;100140.00;4484391;31;33661;-85
2023/06/22 00:32:18;;;;;;;;;;;;;;;23.54;80.90;100146.25;4483991;31;33808;-86
2023/06/22 00:34:46;;;;;;;;;;;;;;;23.09;85.44;100150.72;4488609;31;34672;-85
2023/06/22 00:37:14;;;;;;;;;;;;;;;23.84;79.61;100149.72;4484064;31;33552;-86
2023/06/22 00:39:42;;;;;;;;;;;;;;;22.94;83.56;100149.81;4486706;31;34000;-86
2023/06/22 00:42:09;;;;;;;;;;;;;;;23.93;79.14;100147.00;4487824;31;33778;-85
2023/06/22 00:44:36;;;;;;;;;;;;;;;24.65;75.98;100159.03;4485716;31;32413;-85
2023/06/22 00:47:04;;;;;;;;;;;;;;;24.84;74.50;100147.38;4486675;31;32935;-85
2023/06/22 00:49:31;;;;;;;;;;;;;;;24.41;75.17;100144.12;4488196;31;34348;-85
2023/06/22 00:51:59;;;;;;;;;;;;;;;23.05;83.18;100146.34;4487689;31;33845;-85
2023/06/22 00:54:28;;;;;;;;;;;;;;;23.73;80.27;100144.44;4470142;31;35050;-85
2023/06/22 00:56:57;;;;;;;;;;;;;;;23.77;80.10;100142.66;4469600;31;32217;-85
2023/06/22 00:59:27;;;;;;;;;;;;;;;22.91;84.78;100141.91;4474436;31;33976;-87
2023/06/22 01:01:55;;;;;;;;;;;;;;;22.34;88.16;100151.50;4470662;31;31623;-85
2023/06/22 01:04:23;;;;;;;;;;;;;;;22.13;89.75;100150.53;4470712;31;33985;-85
2023/06/22 01:06:54;;;;;;;;;;;;;;;22.25;89.41;100138.28;4473474;31;33231;-86
2023/06/22 01:09:22;;;;;;;;;;;;;;;22.58;87.00;100143.66;4473587;31;33878;-85
2023/06/22 01:11:54;;;;;;;;;;;;;;;22.46;87.32;100135.69;4486067;31;32504;-85
2023/06/22 01:14:21;;;;;;;;;;;;;;;22.21;89.99;100140.00;4471231;31;33453;-85
2023/06/22 01:16:49;;;;;;;;;;;;;;;22.03;90.93;100127.66;4473128;31;31666;-85
2023/06/22 01:19:20;;;;;;;;;;;;;;;22.00;92.17;100122.37;4485052;31;34014;-86
2023/06/22 01:21:48;;;;;;;;;;;;;;;22.57;88.84;100131.31;4473857;31;34181;-84
2023/06/22 01:24:16;;;;;;;;;;;;;;;22.65;88.09;100133.09;4486368;31;32728;-85
2023/06/22 01:27:06;;;;;;;;;;;;;;;22.45;88.90;100128.66;4484754;31;34124;-85
2023/06/22 01:29:34;;;;;;;;;;;;;;;22.83;87.05;100133.09;4471674;31;32809;-85
2023/06/22 01:32:01;;;;;;;;;;;;;;;23.47;83.93;100125.97;4485869;31;33927;-85
2023/06/22 01:34:29;;;;;;;;;;;;;;;24.05;79.92;100124.91;4471363;31;34890;-85
2023/06/22 01:36:56;;;;;;;;;;;;;;;24.25;78.75;100123.03;4487821;31;33873;-86
2023/06/22 01:39:23;;;;;;;;;;;;;;;24.49;77.12;100122.00;4469286;31;33758;-86
2023/06/22 01:41:52;;;;;;;;;;;;;;;24.72;75.67;100128.91;4474423;31;34843;-84
2023/06/22 01:44:19;;;;;;;;;;;;;;;24.91;74.22;100124.34;4469737;31;34906;-86
2023/06/22 01:46:47;;;;;;;;;;;;;;;24.96;73.01;100117.25;4468594;32;33209;-85
2023/06/22 01:49:14;;;;;;;;;;;;;;;24.69;74.19;100121.03;4483447;31;34276;-85
2023/06/22 01:51:41;;;;;;;;;;;;;;;24.62;73.78;100122.81;4451963;32;787244;-86
2023/06/22 01:54:09;;;;;;;;;;;;;;;23.79;77.83;100122.41;4471365;32;34012;-86
2023/06/22 01:56:36;;;;;;;;;;;;;;;22.50;85.66;100123.38;4483432;31;33427;-85
2023/06/22 01:59:22;;;;;;;;;;;;;;;22.38;87.98;100125.13;4473271;31;34216;-86
2023/06/22 02:01:53;;;;;;;;;;;;;;;22.75;85.86;100134.84;4490559;31;34724;-85
2023/06/22 02:04:21;;;;;;;;;;;;;;;23.62;80.09;100125.94;4466016;32;34470;-86
2023/06/22 02:06:49;;;;;;;;;;;;;;;22.87;83.24;100129.59;4475769;31;33686;-85
2023/06/22 02:09:17;;;;;;;;;;;;;;;22.49;86.42;100132.19;4474896;31;34061;-85
2023/06/22 02:11:45;;;;;;;;;;;;;;;21.97;89.81;100125.00;4483159;32;33851;-85
2023/06/22 02:14:13;;;;;;;;;;;;;;;21.91;89.47;100131.13;4493385;31;34794;-85
2023/06/22 02:16:41;;;;;;;;;;;;;;;22.09;87.65;100135.56;4491322;31;33174;-85
2023/06/22 02:19:09;;;;;;;;;;;;;;;21.65;90.95;100136.28;4486146;31;34908;-87
2023/06/22 02:21:36;;;;;;;;;;;;;;;21.59;90.72;100130.97;4485873;32;33879;-87
2023/06/22 02:24:04;;;;;;;;;;;;;;;21.59;91.31;100138.87;4485642;32;34588;-85
2023/06/22 02:26:31;;;;;;;;;;;;;;;21.59;91.52;100137.16;4480618;31;31429;-85
2023/06/22 02:29:01;;;;;;;;;;;;;;;21.17;92.67;100153.50;4462170;31;34137;-85
2023/06/22 02:31:30;;;;;;;;;;;;;;;20.84;94.56;100149.75;4488119;31;34812;-86
2023/06/22 02:33:58;;;;;;;;;;;;;;;20.91;94.17;100156.84;4485689;32;34108;-84
2023/06/22 02:36:27;;;;;;;;;;;;;;;21.16;92.06;100164.94;4485613;32;34123;-84
2023/06/22 02:38:56;;;;;;;;;;;;;;;22.06;86.65;100159.31;4485481;31;34326;-87
2023/06/22 02:41:23;;;;;;;;;;;;;;;22.72;81.21;100156.00;4465780;32;33941;-84
2023/06/22 02:43:51;;;;;;;;;;;;;;;22.69;80.26;100166.53;4486353;31;33786;-84
2023/06/22 02:46:19;;;;;;;;;;;;;;;22.14;82.06;100168.12;4493597;31;33117;-85
2023/06/22 02:48:48;;;;;;;;;;;;;;;21.36;87.23;100165.06;4473042;32;33998;-85
2023/06/22 02:51:15;;;;;;;;;;;;;;;21.31;87.83;100165.03;4470775;31;34082;-83
2023/06/22 02:53:45;;;;;;;;;;;;;;;20.81;91.58;100170.78;4474026;31;33922;-86
2023/06/22 02:56:13;;;;;;;;;;;;;;;20.76;92.43;100175.13;4485636;32;32596;-85
2023/06/22 02:58:40;;;;;;;;;;;;;;;21.23;90.05;100179.94;4495540;31;34796;-85
2023/06/22 03:01:07;;;;;;;;;;;;;;;21.00;90.44;100170.09;4487802;31;34750;-85
2023/06/22 03:03:36;;;;;;;;;;;;;;;20.98;91.17;100169.19;4497206;31;34905;-84
2023/06/22 03:06:04;;;;;;;;;;;;;;;20.92;91.13;100161.25;4485577;32;33764;-85
2023/06/22 03:08:31;;;;;;;;;;;;;;;20.61;93.73;100153.06;4484671;31;34697;-84
2023/06/22 03:10:58;;;;;;;;;;;;;;;20.76;92.84;100151.44;4491149;31;32615;-85
2023/06/22 03:13:26;;;;;;;;;;;;;;;21.18;89.47;100157.91;4473770;31;32493;-85
2023/06/22 03:15:54;;;;;;;;;;;;;;;20.84;92.07;100165.53;4495646;31;33568;-85
2023/06/22 03:18:22;;;;;;;;;;;;;;;20.92;92.38;100163.88;4485621;32;33557;-85
2023/06/22 03:20:49;;;;;;;;;;;;;;;21.19;90.08;100163.22;4474519;31;34179;-86
2023/06/22 03:23:16;;;;;;;;;;;;;;;21.15;90.88;100165.78;4493231;31;34151;-86
2023/06/22 03:25:44;;;;;;;;;;;;;;;20.88;93.05;100171.72;4480228;31;33331;-85
2023/06/22 03:28:12;;;;;;;;;;;;;;;20.69;94.60;100161.03;4493662;31;33884;-85
2023/06/22 03:30:39;;;;;;;;;;;;;;;20.96;93.62;100160.41;4485047;31;35033;-86
2023/06/22 03:33:06;;;;;;;;;;;;;;;20.90;93.99;100155.09;4482324;31;34665;-85
2023/06/22 03:35:34;;;;;;;;;;;;;;;21.88;87.17;100143.41;4492768;31;32693;-84
2023/06/22 03:38:01;;;;;;;;;;;;;;;21.16;92.17;100162.31;4484383;32;34195;-85
2023/06/22 03:40:29;;;;;;;;;;;;;;;20.92;93.46;100155.97;4485182;32;34853;-85
2023/06/22 03:42:58;;;;;;;;;;;;;;;21.02;93.55;100168.34;4484738;31;34769;-86
2023/06/22 03:45:25;;;;;;;;;;;;;;;21.07;92.78;100163.09;4492379;31;32332;-85
2023/06/22 03:47:53;;;;;;;;;;;;;;;21.13;92.82;100164.91;4487971;31;34048;-86
2023/06/22 03:50:20;;;;;;;;;;;;;;;21.48;90.55;100157.28;4493035;31;34134;-86
2023/06/22 03:52:48;;;;;;;;;;;;;;;21.37;90.35;100157.19;4484929;32;34328;-85
2023/06/22 03:55:15;;;;;;;;;;;;;;;21.19;91.46;100151.81;4485896;31;34211;-86
2023/06/22 03:57:43;;;;;;;;;;;;;;;21.03;93.20;100156.03;4489164;31;34148;-86
2023/06/22 04:00:10;;;;;;;;;;;;;;;21.08;93.61;100159.59;4479290;32;32459;-86
2023/06/22 04:02:39;;;;;;;;;;;;;;;21.33;91.92;100165.94;4495423;31;34737;-85
2023/06/22 04:05:06;;;;;;;;;;;;;;;21.46;90.81;100166.03;4487552;31;33123;-84
2023/06/22 04:07:34;;;;;;;;;;;;;;;21.90;87.47;100161.00;4480396;31;33918;-84
2023/06/22 04:10:01;;;;;;;;;;;;;;;21.76;87.79;100157.44;4494791;31;34807;-84
2023/06/22 04:12:29;;;;;;;;;;;;;;;21.64;88.00;100165.28;4484588;31;33742;-86
2023/06/22 04:14:56;;;;;;;;;;;;;;;22.10;86.05;100161.09;4485791;31;34270;-84
2023/06/22 04:17:24;;;;;;;;;;;;;;;21.87;86.21;100157.50;4498144;31;33744;-84
2023/06/22 04:19:52;;;;;;;;;;;;;;;21.88;87.10;100149.56;4491120;31;34840;-86
2023/06/22 04:22:19;;;;;;;;;;;;;;;21.76;88.17;100158.31;4484262;32;34910;-85
2023/06/22 04:24:46;;;;;;;;;;;;;;;21.77;87.37;100154.81;4495346;31;33123;-85
2023/06/22 04:27:14;;;;;;;;;;;;;;;21.79;87.63;100154.81;4473373;31;34764;-84
2023/06/22 04:29:48;;;;;;;;;;;;;;;21.88;86.95;100149.56;4500025;31;33570;-84
2023/06/22 04:32:16;;;;;;;;;;;;;;;21.90;86.41;100157.50;4493804;31;34298;-85
2023/06/22 04:34:43;;;;;;;;;;;;;;;22.04;86.43;100161.06;4489791;31;34661;-85
2023/06/22 04:37:15;;;;;;;;;;;;;;;21.96;86.92;100163.69;4484558;32;34244;-85
2023/06/22 04:39:43;;;;;;;;;;;;;;;21.62;88.08;100177.59;4485010;32;33782;-85
2023/06/22 04:42:12;;;;;;;;;;;;;;;22.16;85.01;100182.22;4484534;32;33923;-85
2023/06/22 04:44:39;;;;;;;;;;;;;;;23.04;80.09;100178.91;4488392;31;33279;-85
2023/06/22 04:47:08;;;;;;;;;;;;;;;23.51;78.05;100188.56;4488929;31;34937;-84
2023/06/22 04:49:40;;;;;;;;;;;;;;;22.73;80.50;100192.94;4473713;31;33999;-84
2023/06/22 04:52:08;;;;;;;;;;;;;;;22.88;80.16;100196.50;4493244;31;34932;-84
2023/06/22 04:54:36;;;;;;;;;;;;;;;22.75;81.57;100198.22;4484899;32;33627;-84
2023/06/22 04:57:05;;;;;;;;;;;;;;;22.39;83.52;100192.00;4484312;32;34637;-86
2023/06/22 04:59:32;;;;;;;;;;;;;;;22.38;84.29;100192.87;4483473;32;34934;-86
2023/06/22 05:02:00;;;;;;;;;;;;;;;22.69;84.20;100192.94;4482907;31;34483;-86
2023/06/22 05:04:28;;;;;;;;;;;;;;;22.65;83.20;100196.47;4492984;31;33620;-86
2023/06/22 05:06:56;;;;;;;;;;;;;;;23.03;81.33;100198.31;4492544;31;34293;-84
2023/06/22 05:09:25;;;;;;;;;;;;;;;23.06;81.78;100198.28;4484446;31;34849;-85
2023/06/22 05:11:52;;;;;;;;;;;;;;;22.85;83.86;100202.66;4484415;31;34384;-85
2023/06/22 05:14:19;;;;;;;;;;;;;;;23.10;81.78;100210.59;4479764;31;33794;-85
2023/06/22 05:16:51;;;;;;;;;;;;;;;22.93;80.85;100219.38;4483080;31;34719;-85
2023/06/22 05:19:19;;;;;;;;;;;;;;;23.61;77.94;100218.53;4484133;32;34597;-85
2023/06/22 05:21:46;;;;;;;;;;;;;;;23.50;77.55;100231.75;4484026;32;34829;-86
2023/06/22 05:24:13;;;;;;;;;;;;;;;23.34;78.72;100229.12;4484177;31;32676;-85
2023/06/22 05:26:41;;;;;;;;;;;;;;;23.49;78.95;100225.59;4485364;31;34146;-85
2023/06/22 05:29:08;;;;;;;;;;;;;;;23.41;77.41;100226.47;4490837;31;33442;-85
2023/06/22 05:31:35;;;;;;;;;;;;;;;24.00;76.00;100216.69;4483934;32;33724;-85
2023/06/22 05:34:03;;;;;;;;;;;;;;;24.04;75.06;100218.44;4483896;32;33389;-85
2023/06/22 05:36:30;;;;;;;;;;;;;;;24.56;73.46;100225.28;4484063;31;34240;-85
2023/06/22 05:38:58;;;;;;;;;;;;;;;24.39;73.29;100233.28;4498118;31;34054;-86
2023/06/22 05:41:25;;;;;;;;;;;;;;;24.36;74.51;100246.50;4486369;31;34340;-85
2023/06/22 05:43:53;;;;;;;;;;;;;;;24.27;73.54;100236.87;4486005;32;33866;-85
2023/06/22 05:46:20;;;;;;;;;;;;;;;25.29;69.76;100240.69;4477477;32;34395;-85
2023/06/22 05:48:47;;;;;;;;;;;;;;;25.24;70.08;100238.97;4493634;31;34011;-85
2023/06/22 05:51:15;;;;;;;;;;;;;;;24.78;72.64;100241.91;4492167;31;34812;-85
2023/06/22 05:53:42;;;;;;;;;;;;;;;25.54;69.50;100244.91;4486589;31;33625;-84
2023/06/22 05:56:09;;;;;;;;;;;;;;;25.57;70.04;100240.41;4500375;31;34257;-84
2023/06/22 05:58:37;;;;;;;;;;;;;;;26.43;65.74;100242.12;4491702;31;33992;-85
2023/06/22 06:01:04;;;;;;;;;;;;;;;25.45;69.86;100248.50;4486796;31;34321;-84
2023/06/22 06:03:31;;;;;;;;;;;;;;;26.46;65.45;100239.44;4489027;31;34016;-85
2023/06/22 06:05:59;;;;;;;;;;;;;;;26.79;62.99;100239.91;4496033;31;35025;-84
2023/06/22 06:08:26;;;;;;;;;;;;;;;25.05;69.95;100238.19;4492270;31;34309;-84
2023/06/22 06:10:54;;;;;;;;;;;;;;;25.77;67.02;100239.34;4485918;32;34308;-84
2023/06/22 06:13:22;;;;;;;;;;;;;;;25.70;65.81;100250.03;4483727;32;31787;-84
2023/06/22 06:15:51;;;;;;;;;;;;;;;25.54;66.89;100234.28;4486869;31;34799;-85
2023/06/22 06:18:18;;;;;;;;;;;;;;;26.53;63.38;100228.72;4494038;31;34924;-84
2023/06/22 06:20:46;;;;;;;;;;;;;;;26.49;63.76;100230.56;4490551;31;33778;-84
2023/06/22 06:23:13;;;;;;;;;;;;;;;27.11;59.74;100225.22;4486183;32;33397;-85
2023/06/22 06:25:40;;;;;;;;;;;;;;;26.83;61.33;100223.00;4485704;32;34936;-84
2023/06/22 06:28:08;;;;;;;;;;;;;;;26.54;66.54;100227.81;4485833;32;34260;-84
2023/06/22 06:30:37;;;;;;;;;;;;;;;26.79;63.61;100225.72;4474588;31;33962;-84
2023/06/22 06:33:08;;;;;;;;;;;;;;;27.23;60.11;100225.00;4474005;31;32035;-84
2023/06/22 06:35:37;;;;;;;;;;;;;;;27.30;59.77;100219.63;4498249;31;34011;-84
2023/06/22 06:38:05;;;;;;;;;;;;;;;27.13;62.38;100223.41;4485636;32;33658;-85
2023/06/22 06:40:32;;;;;;;;;;;;;;;26.24;63.93;100225.56;4485592;32;34195;-84
2023/06/22 06:43:00;;;;;;;;;;;;;;;27.04;61.66;100218.22;4485731;32;34254;-85
2023/06/22 06:45:29;;;;;;;;;;;;;;;26.98;61.81;100208.56;4485648;32;34330;-83
2023/06/22 06:47:56;;;;;;;;;;;;;;;27.75;57.13;100209.03;4483071;31;32511;-84
2023/06/22 06:50:23;;;;;;;;;;;;;;;27.96;57.70;100215.78;4478806;32;34531;-83
2023/06/22 06:52:51;;;;;;;;;;;;;;;27.03;58.54;100213.84;4495652;31;33498;-84
2023/06/22 06:55:19;;;;;;;;;;;;;;;28.06;57.21;100208.47;4486867;31;34349;-84
2023/06/22 06:57:48;;;;;;;;;;;;;;;28.41;52.41;100203.28;4496468;31;34176;-84
2023/06/22 07:00:16;;;;;;;;;;;;;;;27.21;55.02;100208.19;4486109;31;33962;-84
2023/06/22 07:02:43;;;;;;;;;;;;;;;27.87;55.59;100210.59;4484727;31;33403;-84
2023/06/22 07:05:11;;;;;;;;;;;;;;;28.28;52.50;100206.22;4483515;31;33896;-84
2023/06/22 07:07:39;;;;;;;;;;;;;;;27.48;55.42;100203.34;4488098;31;35110;-83
2023/06/22 07:10:06;;;;;;;;;;;;;;;28.41;51.55;100197.94;4488692;31;34343;-85
2023/06/22 07:12:33;;;;;;;;;;;;;;;28.21;52.84;100200.16;4477196;31;33899;-84
2023/06/22 07:15:05;;;;;;;;;;;;;;;28.71;51.42;100195.50;4491410;31;34579;-84
2023/06/22 07:17:32;;;;;;;;;;;;;;;28.83;51.53;100200.53;4492135;31;34776;-84
2023/06/22 07:20:00;;;;;;;;;;;;;;;27.89;54.13;100199.03;4492244;31;33988;-84
2023/06/22 07:22:29;;;;;;;;;;;;;;;29.01;51.75;100198.31;4487179;31;32994;-84
2023/06/22 07:24:56;;;;;;;;;;;;;;;27.85;53.80;100192.87;4497784;31;33835;-84
2023/06/22 07:27:23;;;;;;;;;;;;;;;28.07;53.87;100202.22;4485834;31;33476;-85
2023/06/22 07:29:51;;;;;;;;;;;;;;;29.23;51.43;100197.84;4480765;32;34233;-85
2023/06/22 07:32:19;;;;;;;;;;;;;;;29.76;52.33;100206.22;4484241;31;34131;-84
2023/06/22 07:34:46;;;;;;;;;;;;;;;30.13;49.73;100195.38;4473150;31;34063;-86
2023/06/22 07:37:14;;;;;;;;;;;;;;;30.55;48.15;100195.00;4485974;31;33707;-83
2023/06/22 07:39:42;;;;;;;;;;;;;;;30.93;46.98;100197.41;4484265;32;33805;-83
2023/06/22 07:42:09;;;;;;;;;;;;;;;31.27;47.45;100198.94;4484898;31;32886;-86
2023/06/22 07:44:37;;;;;;;;;;;;;;;31.61;45.31;100193.31;4490413;31;32462;-86
2023/06/22 07:47:05;;;;;;;;;;;;;;;31.55;44.34;100194.38;4483265;31;33642;-83
2023/06/22 07:49:32;;;;;;;;;;;;;;;30.81;46.62;100192.41;4484497;31;34059;-84
2023/06/22 07:52:01;;;;;;;;;;;;;;;30.46;46.56;100189.97;4484155;31;33794;-84
2023/06/22 07:54:30;;;;;;;;;;;;;;;30.01;47.18;100186.84;4484238;32;33956;-86
2023/06/22 07:56:57;;;;;;;;;;;;;;;30.61;47.02;100188.56;4488352;31;33611;-84
2023/06/22 07:59:25;;;;;;;;;;;;;;;31.74;45.20;100186.56;4485145;31;34270;-86
2023/06/22 08:01:52;;;;;;;;;;;;;;;31.53;43.20;100190.91;4484668;31;33195;-84
2023/06/22 08:04:19;;;;;;;;;;;;;;;31.52;45.41;100189.16;4493034;31;34279;-85
2023/06/22 08:06:47;;;;;;;;;;;;;;;33.47;39.06;100182.41;4493948;31;33919;-86
2023/06/22 08:09:14;;;;;;;;;;;;;;;34.64;36.38;100171.66;4486880;31;33695;-85
2023/06/22 08:11:42;;;;;;;;;;;;;;;33.98;39.25;100172.09;4484637;32;33529;-84
2023/06/22 08:14:09;;;;;;;;;;;;;;;32.91;41.67;100178.50;4484824;32;34795;-84
2023/06/22 08:16:36;;;;;;;;;;;;;;;32.59;42.65;100171.78;4485015;32;33791;-84
2023/06/22 08:19:04;;;;;;;;;;;;;;;32.40;42.49;100175.19;4485085;32;34304;-85
2023/06/22 08:21:31;;;;;;;;;;;;;;;32.31;41.93;100173.72;4484936;32;34206;-85
2023/06/22 08:23:58;;;;;;;;;;;;;;;31.91;42.32;100175.25;4485082;32;33460;-85
2023/06/22 08:26:26;;;;;;;;;;;;;;;31.29;43.98;100178.34;4485060;32;34360;-84
2023/06/22 08:28:53;;;;;;;;;;;;;;;32.13;41.57;100169.94;4484996;32;33834;-84
2023/06/22 08:31:20;;;;;;;;;;;;;;;31.59;45.38;100173.75;4485052;32;32950;-85
2023/06/22 08:33:48;;;;;;;;;;;;;;;31.74;43.06;100166.97;4481690;32;34339;-84
2023/06/22 08:36:16;;;;;;;;;;;;;;;31.32;44.25;100170.22;4478577;31;34443;-84
2023/06/22 08:38:44;;;;;;;;;;;;;;;32.56;41.47;100166.53;4489868;31;33520;-84
2023/06/22 08:41:12;;;;;;;;;;;;;;;32.59;42.86;100167.31;4484748;32;33286;-84
2023/06/22 08:43:39;;;;;;;;;;;;;;;33.59;40.76;100164.88;4484616;32;34415;-84
2023/06/22 08:46:06;;;;;;;;;;;;;;;32.23;42.68;100158.87;4479748;32;34964;-85
2023/06/22 08:48:33;;;;;;;;;;;;;;;32.07;45.71;100159.47;4494297;31;34703;-84
2023/06/22 08:51:01;;;;;;;;;;;;;;;33.57;39.13;100158.69;4488006;31;33190;-84
2023/06/22 08:53:28;;;;;;;;;;;;;;;34.65;38.10;100143.81;4484924;32;34394;-84
2023/06/22 08:55:56;;;;;;;;;;;;;;;35.75;35.33;100142.66;4470460;32;33377;-84
2023/06/22 08:58:24;;;;;;;;;;;;;;;35.24;36.67;100144.47;4470847;32;34317;-84
2023/06/22 09:00:51;;;;;;;;;;;;;;;33.31;41.84;100144.63;4496607;31;33920;-85
2023/06/22 09:03:20;;;;;;;;;;;;;;;33.97;39.77;100138.09;4485430;31;33975;-84
2023/06/22 09:05:48;;;;;;;;;;;;;;;34.55;38.63;100135.31;4484861;32;35020;-84
2023/06/22 09:08:15;;;;;;;;;;;;;;;33.60;43.64;100142.47;4490361;31;34512;-84
2023/06/22 09:10:43;;;;;;;;;;;;;;;33.13;42.74;100140.03;4475402;32;32879;-84
2023/06/22 09:13:10;;;;;;;;;;;;;;;33.12;43.88;100139.19;4499308;31;33915;-84
2023/06/22 09:15:37;;;;;;;;;;;;;;;33.16;43.18;100130.06;4486269;32;33605;-84
2023/06/22 09:18:05;;;;;;;;;;;;;;;32.96;43.40;100133.56;4486417;32;34214;-84
2023/06/22 09:20:32;;;;;;;;;;;;;;;32.62;42.57;100134.97;4486451;32;33215;-84
2023/06/22 09:22:59;;;;;;;;;;;;;;;33.83;42.52;100122.63;4486576;32;33710;-84
2023/06/22 09:25:27;;;;;;;;;;;;;;;33.09;41.54;100132.13;4486267;32;34184;-85
2023/06/22 09:27:55;;;;;;;;;;;;;;;32.63;43.06;100136.75;4486315;32;34159;-84
2023/06/22 09:30:22;;;;;;;;;;;;;;;34.00;40.88;100127.22;4486363;32;33387;-85
2023/06/22 09:32:50;;;;;;;;;;;;;;;33.71;39.43;100126.75;4485928;32;34915;-84
2023/06/22 09:35:17;;;;;;;;;;;;;;;34.35;40.02;100122.00;4486393;32;34131;-84
2023/06/22 09:37:45;;;;;;;;;;;;;;;33.78;38.96;100122.81;4486189;32;34250;-84
2023/06/22 09:40:13;;;;;;;;;;;;;;;32.99;40.94;100128.06;4459026;32;32371;-84
2023/06/22 09:42:41;;;;;;;;;;;;;;;34.06;38.78;100116.16;4479510;32;33928;-85
2023/06/22 09:45:08;;;;;;;;;;;;;;;34.17;38.00;100119.25;4493402;31;34911;-84
2023/06/22 09:47:36;;;;;;;;;;;;;;;34.99;36.97;100113.41;4486173;31;34244;-84
2023/06/22 09:50:03;;;;;;;;;;;;;;;35.36;38.16;100118.72;4492726;31;33866;-84
2023/06/22 09:52:31;;;;;;;;;;;;;;;35.20;37.23;100115.97;4492235;31;33985;-84
2023/06/22 09:55:15;;;;;;;;;;;;;;;35.11;38.81;100116.41;4486350;32;35590;-84
2023/06/22 09:57:42;;;;;;;;;;;;;;;35.34;38.87;100118.78;4472062;32;34498;-84
2023/06/22 10:00:12;;;;;;;;;;;;;;;34.54;38.30;100121.94;4493174;31;33308;-84
2023/06/22 10:02:43;;;;;;;;;;;;;;;35.42;36.86;100116.53;4477343;32;34243;-84
2023/06/22 10:05:11;;;;;;;;;;;;;;;35.97;36.27;100109.16;4484835;31;33831;-84
2023/06/22 10:07:42;;;;;;;;;;;;;;;36.03;36.83;100100.72;4492138;31;34300;-85
2023/06/22 10:10:10;;;;;;;;;;;;;;;34.93;40.29;100108.34;4485982;32;33272;-84
2023/06/22 10:12:40;;;;;;;;;;;;;;;35.24;39.32;100106.78;4486173;32;34115;-85
2023/06/22 10:15:08;;;;;;;;;;;;;;;35.31;39.36;100113.59;4486012;32;33729;-84
2023/06/22 10:17:36;;;;;;;;;;;;;;;35.75;38.69;100102.22;4485788;32;34310;-85
2023/06/22 10:20:10;;;;;;;;;;;;;;;35.50;38.13;100107.19;4486069;32;32841;-84
2023/06/22 10:22:39;;;;;;;;;;;;;;;35.48;37.48;100103.72;4485434;32;33457;-84
2023/06/22 10:25:07;;;;;;;;;;;;;;;35.91;36.93;100104.97;4485828;32;34051;-85
2023/06/22 10:27:34;;;;;;;;;;;;;;;35.73;36.80;100104.13;4485889;32;34312;-86
2023/06/22 10:30:02;;;;;;;;;;;;;;;35.91;37.03;100101.37;4485915;32;34081;-84
2023/06/22 10:32:30;;;;;;;;;;;;;;;36.22;36.12;100100.56;4486087;32;34322;-83
2023/06/22 10:34:57;;;;;;;;;;;;;;;36.60;34.46;100098.31;4485832;32;34790;-84
2023/06/22 10:37:26;;;;;;;;;;;;;;;36.31;36.42;100099.16;4486046;32;34801;-85
2023/06/22 10:39:53;;;;;;;;;;;;;;;36.63;35.77;100099.13;4491144;31;32645;-85
2023/06/22 10:42:20;;;;;;;;;;;;;;;36.86;34.44;100089.66;4494592;31;33816;-85
2023/06/22 10:44:48;;;;;;;;;;;;;;;37.12;34.54;100090.78;4490198;31;34244;-84
2023/06/22 10:47:15;;;;;;;;;;;;;;;36.85;35.48;100094.19;4485904;32;33866;-84
2023/06/22 10:49:42;;;;;;;;;;;;;;;36.95;33.51;100094.50;4485850;32;33447;-87
2023/06/22 10:52:10;;;;;;;;;;;;;;;37.16;33.75;100086.97;4492140;31;34341;-85
2023/06/22 10:54:37;;;;;;;;;;;;;;;37.03;33.57;100091.34;4491384;31;34972;-86
2023/06/22 10:57:05;;;;;;;;;;;;;;;36.69;34.28;100085.28;4471264;31;33041;-87
2023/06/22 10:59:32;;;;;;;;;;;;;;;37.21;32.95;100087.56;4498598;31;33383;-85
2023/06/22 11:01:59;;;;;;;;;;;;;;;37.38;33.93;100090.09;4471188;32;32416;-85
2023/06/22 11:04:27;;;;;;;;;;;;;;;36.98;34.01;100091.63;4494677;31;34038;-85
2023/06/22 11:06:56;;;;;;;;;;;;;;;37.04;34.52;100093.09;4480413;31;34778;-87
2023/06/22 11:09:23;;;;;;;;;;;;;;;37.07;33.99;100095.59;4471831;32;33253;-84
2023/06/22 11:11:56;;;;;;;;;;;;;;;37.25;33.51;100082.84;4476850;31;33498;-85
2023/06/22 11:14:23;;;;;;;;;;;;;;;37.74;33.93;100072.53;4492604;31;33417;-84
2023/06/22 11:16:50;;;;;;;;;;;;;;;37.28;34.61;100080.81;4485549;32;33557;-85
2023/06/22 11:19:18;;;;;;;;;;;;;;;37.49;33.43;100072.31;4485833;32;32973;-86
2023/06/22 11:21:45;;;;;;;;;;;;;;;38.00;32.98;100080.81;4485437;32;34871;-85
2023/06/22 11:24:13;;;;;;;;;;;;;;;37.46;32.47;100067.13;4485318;32;34268;-84
2023/06/22 11:26:40;;;;;;;;;;;;;;;35.74;35.69;100068.16;4485570;32;34586;-85
2023/06/22 11:29:07;;;;;;;;;;;;;;;35.55;36.34;100062.88;4485881;32;33031;-84
2023/06/22 11:31:42;;;;;;;;;;;;;;;36.15;34.77;100075.72;4485373;32;34761;-85
2023/06/22 11:34:09;;;;;;;;;;;;;;;37.07;32.56;100076.69;4491677;31;34088;-87
2023/06/22 11:36:37;;;;;;;;;;;;;;;37.46;31.98;100054.47;4490340;31;34983;-86
2023/06/22 11:39:05;;;;;;;;;;;;;;;37.54;32.37;100064.81;4485454;32;34242;-85
2023/06/22 11:41:32;;;;;;;;;;;;;;;37.24;32.95;100067.59;4485666;32;33636;-85
2023/06/22 11:43:59;;;;;;;;;;;;;;;37.21;33.93;100067.78;4485319;32;34122;-85
2023/06/22 11:46:27;;;;;;;;;;;;;;;37.00;33.40;100060.00;4485210;32;34044;-84
2023/06/22 11:48:54;;;;;;;;;;;;;;;36.55;35.70;100053.69;4485244;32;33603;-84
2023/06/22 11:51:21;;;;;;;;;;;;;;;36.45;34.63;100052.47;4485689;32;34160;-84
2023/06/22 11:53:49;;;;;;;;;;;;;;;35.95;34.45;100052.62;4485085;32;33444;-85
2023/06/22 11:56:16;;;;;;;;;;;;;;;36.84;34.13;100054.69;4485188;32;33720;-84
2023/06/22 11:58:43;;;;;;;;;;;;;;;37.20;34.20;100056.09;4485719;32;32788;-84
2023/06/22 12:01:15;;;;;;;;;;;;;;;35.77;34.54;100046.41;4485118;32;34406;-85
2023/06/22 12:03:45;;;;;;;;;;;;;;;35.73;35.52;100044.84;4485507;32;33893;-84
2023/06/22 12:06:13;;;;;;;;;;;;;;;36.06;35.29;100045.72;4485319;32;33823;-85
2023/06/22 12:08:40;;;;;;;;;;;;;;;36.38;32.24;100041.19;4496050;31;33240;-85
2023/06/22 12:11:08;;;;;;;;;;;;;;;36.93;33.10;100043.28;4460836;31;34885;-85
2023/06/22 12:13:35;;;;;;;;;;;;;;;36.35;32.72;100035.97;4482975;32;34146;-85
2023/06/22 12:16:02;;;;;;;;;;;;;;;35.53;33.94;100031.59;4491505;31;34158;-85
2023/06/22 12:18:30;;;;;;;;;;;;;;;34.63;35.04;100030.87;4491453;31;33967;-85
2023/06/22 12:20:57;;;;;;;;;;;;;;;35.94;33.45;100031.13;4485371;32;34879;-86
2023/06/22 12:23:24;;;;;;;;;;;;;;;36.46;33.86;100020.03;4485044;32;34216;-84
2023/06/22 12:25:52;;;;;;;;;;;;;;;36.15;32.75;100023.63;4485296;32;34432;-86
2023/06/22 12:28:19;;;;;;;;;;;;;;;36.08;34.24;100017.72;4470845;32;32810;-85
2023/06/22 12:30:46;;;;;;;;;;;;;;;36.44;31.76;100013.84;4496535;31;34252;-85
2023/06/22 12:33:14;;;;;;;;;;;;;;;36.91;33.34;100012.81;4486510;31;34387;-84
2023/06/22 12:35:41;;;;;;;;;;;;;;;36.47;31.94;100013.69;4482377;32;32304;-86
2023/06/22 12:38:09;;;;;;;;;;;;;;;37.30;30.91;100003.25;4491954;31;34128;-85